Zhongchuan Airport
ZLLL : rendu visible

Aérodrome :











RETROUVEZ-NOUS SUR...

 
LOGIN :

S'inscrire | Disclaimer

   EN    FR    IT 

 









Légende :    VFR   VFR Marginal   IFR   IFR Intensif   IFR Très Intensif
Visi : 
Plafond : 
>= 8 km
>= 3000ft
5 à 8 km
1000 à 3000 ft
1500m à 5 km
500 à 1000 ft
800 à 1500m
200 à 500 ft
< 800m
< 200 ft
Symboles :   Orages  Brouillard  Fortes neiges  Fortes précipitations  Vent > 20 kt






- Altitude de l'aérodrome : 6388 ft
- Code IATA : ZGC


ZLLL - Zhongchuan

DERNIER METAR :
  • 022200Z 30001MPS CAVOK M11/M14 Q1028 NOSIG

METARs EXPIRÉS :
  • 022100Z 32001MPS CAVOK M11/M14 Q1028 NOSIG
  • 022000Z 31001MPS CAVOK M10/M14 Q1029 NOSIG

TAF TAF ZLLL
Valide du 02 à 18h jusqu'au 03 à 18h UTC


021504Z 0218/0318 04003MPS 6000 BKN040 TXM02/0308Z TNM11/0223Z
TEMPO 0218/0224 4000 -SN
FIR ZLHW / Asie



MET'MAP, la Météo Aéronautique d'un coup d'oeil ! - Copyright ORBIFLY Décembre 2007 - Disclaimer

ORBIFLY MET'MAP TEAM :

Programmation & Développement : Alexandra Zaïnal
Sur une idée originale de : Baudouin d'Aumeries
Assistance à la programmation : Marc-Olivier Méhu
Soutien technique & logistique : Manuel Goepfert

Contact : metmap@orbifly.com




SOURCES & CREDITS :

   NOAA       Earth
Advisory